createdAt,value
2022-08-07T00:01:43.981Z,16.00
2022-08-07T00:04:09.623Z,15.90
2022-08-07T00:06:40.955Z,15.80
2022-08-07T00:09:21.170Z,15.70
2022-08-07T00:11:55.821Z,15.60
2022-08-07T00:14:31.475Z,15.50
2022-08-07T00:17:02.470Z,15.50
2022-08-07T00:19:58.716Z,15.40
2022-08-07T00:22:24.399Z,15.40
2022-08-07T00:25:05.634Z,15.30
2022-08-07T00:27:52.868Z,15.30
2022-08-07T00:30:27.179Z,15.30
2022-08-07T00:32:57.417Z,15.30
2022-08-07T00:35:27.332Z,15.30
2022-08-07T00:37:59.666Z,15.30
2022-08-07T00:40:39.775Z,15.20
2022-08-07T00:43:59.338Z,15.20
2022-08-07T00:46:01.945Z,15.20
2022-08-07T00:48:32.352Z,15.20
2022-08-07T00:51:02.691Z,15.10
2022-08-07T00:53:44.171Z,15.00
2022-08-07T00:56:19.543Z,15.00
2022-08-07T00:58:49.660Z,15.00
2022-08-07T01:01:21.407Z,15.00
2022-08-07T01:03:55.739Z,15.00
2022-08-07T01:06:27.457Z,14.90
2022-08-07T01:08:58.278Z,14.90
2022-08-07T01:12:23.837Z,14.80
2022-08-07T01:14:16.733Z,14.80
2022-08-07T01:16:47.163Z,14.80
2022-08-07T01:20:16.658Z,14.90
2022-08-07T01:22:58.391Z,14.80
2022-08-07T01:25:54.870Z,14.80
2022-08-07T01:28:24.507Z,14.70
2022-08-07T01:30:55.085Z,14.70
2022-08-07T01:33:54.034Z,14.70
2022-08-07T01:36:15.069Z,14.70
2022-08-07T01:38:46.896Z,14.70
2022-08-07T01:41:26.081Z,14.60
2022-08-07T01:43:55.338Z,14.70
2022-08-07T01:46:24.707Z,14.70
2022-08-07T01:48:53.839Z,14.70
2022-08-07T01:52:01.807Z,14.70
2022-08-07T01:54:32.523Z,14.60
2022-08-07T01:57:08.424Z,14.60
2022-08-07T01:59:47.138Z,14.50
2022-08-07T02:02:32.949Z,14.50
2022-08-07T02:05:43.334Z,14.60
2022-08-07T02:08:17.134Z,14.50
2022-08-07T02:10:55.453Z,14.60
2022-08-07T02:13:56.851Z,14.50
2022-08-07T02:16:28.669Z,14.60
2022-08-07T02:19:05.398Z,14.60
2022-08-07T02:21:58.839Z,14.60
2022-08-07T02:24:30.019Z,14.50
2022-08-07T02:27:02.707Z,14.50
2022-08-07T02:29:36.715Z,14.50
2022-08-07T02:32:13.498Z,14.50
2022-08-07T02:34:49.012Z,14.40
2022-08-07T02:37:21.645Z,14.40
2022-08-07T02:40:02.305Z,14.30
2022-08-07T02:42:43.583Z,14.30
2022-08-07T02:45:58.333Z,14.30
2022-08-07T02:48:05.190Z,14.20
2022-08-07T02:50:45.219Z,14.10
2022-08-07T02:53:23.617Z,14.00
2022-08-07T02:56:03.998Z,14.00
2022-08-07T02:58:39.811Z,13.90
2022-08-07T03:01:18.536Z,13.90
2022-08-07T03:03:49.768Z,14.00
2022-08-07T03:06:26.018Z,14.00
2022-08-07T03:09:03.399Z,14.00
2022-08-07T03:11:38.928Z,14.00
2022-08-07T03:14:23.527Z,13.90
2022-08-07T03:16:53.674Z,13.90
2022-08-07T03:19:22.541Z,13.90
2022-08-07T03:21:52.255Z,13.90
2022-08-07T03:24:27.063Z,13.80
2022-08-07T03:27:01.223Z,13.90
2022-08-07T03:29:38.486Z,13.80
2022-08-07T03:32:17.080Z,13.70
2022-08-07T03:35:00.798Z,13.70
2022-08-07T03:37:46.141Z,13.70
2022-08-07T03:40:23.655Z,13.70
2022-08-07T03:42:59.847Z,13.70
2022-08-07T03:45:31.666Z,13.80
2022-08-07T03:48:01.166Z,13.80
2022-08-07T03:50:30.382Z,13.80
2022-08-07T03:53:00.379Z,13.80
2022-08-07T03:55:58.208Z,13.80
2022-08-07T03:59:07.202Z,13.80
2022-08-07T04:01:14.592Z,13.80
2022-08-07T04:03:49.713Z,13.80
2022-08-07T04:06:36.265Z,13.80
2022-08-07T04:09:08.436Z,13.70
2022-08-07T04:12:25.661Z,13.80
2022-08-07T04:14:38.441Z,13.70
2022-08-07T04:17:19.992Z,13.80
2022-08-07T04:19:54.248Z,13.70
2022-08-07T04:22:27.418Z,13.70
2022-08-07T04:25:00.861Z,13.70
2022-08-07T04:27:35.396Z,13.70
2022-08-07T04:30:13.448Z,13.70
2022-08-07T04:32:57.895Z,13.70
2022-08-07T04:35:27.457Z,13.70
2022-08-07T04:38:07.895Z,13.80
2022-08-07T04:40:51.473Z,14.00
2022-08-07T04:44:12.023Z,14.10
2022-08-07T04:46:34.709Z,14.20
2022-08-07T04:49:24.627Z,14.30
2022-08-07T04:52:10.463Z,14.30
2022-08-07T04:54:52.698Z,14.30
2022-08-07T04:58:29.219Z,14.30
2022-08-07T05:00:32.748Z,14.40
2022-08-07T05:03:17.134Z,14.60
2022-08-07T05:06:19.520Z,14.80
2022-08-07T05:09:00.637Z,15.30
2022-08-07T05:11:57.159Z,16.20
2022-08-07T05:14:53.406Z,17.50
2022-08-07T05:17:50.218Z,18.70
2022-08-07T05:20:15.848Z,19.30
2022-08-07T05:22:50.574Z,19.50
2022-08-07T05:25:36.005Z,19.40
2022-08-07T05:28:20.172Z,19.20
2022-08-07T05:30:54.395Z,18.70
2022-08-07T05:33:24.783Z,18.50
2022-08-07T05:35:56.199Z,18.10
2022-08-07T05:38:59.484Z,17.90
2022-08-07T05:41:16.730Z,17.80
2022-08-07T05:44:12.375Z,17.70
2022-08-07T05:46:41.441Z,17.80
2022-08-07T05:49:14.211Z,17.90
2022-08-07T05:51:46.348Z,17.90
2022-08-07T05:54:37.167Z,17.90
2022-08-07T05:57:09.117Z,17.80
2022-08-07T05:59:55.627Z,17.80
2022-08-07T06:02:31.103Z,18.00
2022-08-07T06:05:06.210Z,18.10
2022-08-07T06:08:29.932Z,18.30
2022-08-07T06:10:27.088Z,18.40
2022-08-07T06:12:56.125Z,18.60
2022-08-07T06:15:42.484Z,18.70
2022-08-07T06:18:14.120Z,18.70
2022-08-07T06:20:50.630Z,18.70
2022-08-07T06:24:38.508Z,18.80
2022-08-07T06:26:27.549Z,18.90
2022-08-07T06:28:59.543Z,19.00
2022-08-07T06:31:38.817Z,18.90
2022-08-07T06:34:19.639Z,18.80
2022-08-07T06:36:51.798Z,18.80
2022-08-07T06:40:15.817Z,18.90
2022-08-07T06:42:19.211Z,18.90
2022-08-07T06:44:51.049Z,19.10
2022-08-07T06:47:21.000Z,19.30
2022-08-07T06:49:51.751Z,19.30
2022-08-07T06:52:35.597Z,19.40
2022-08-07T06:55:33.997Z,19.40
2022-08-07T06:58:04.201Z,19.40
2022-08-07T07:00:39.170Z,19.50
2022-08-07T07:03:13.901Z,19.50
2022-08-07T07:06:05.180Z,19.60
2022-08-07T07:08:34.373Z,19.60
2022-08-07T07:11:13.498Z,19.70
2022-08-07T07:13:58.480Z,19.70
2022-08-07T07:16:49.532Z,19.70
2022-08-07T07:19:55.264Z,19.80
2022-08-07T07:22:36.972Z,19.80
2022-08-07T07:26:31.136Z,19.80
2022-08-07T07:28:03.293Z,19.80
2022-08-07T07:30:41.499Z,19.90
2022-08-07T07:33:15.123Z,19.90
2022-08-07T07:36:04.042Z,20.00
2022-08-07T07:38:35.989Z,20.00
2022-08-07T07:41:09.214Z,19.90
2022-08-07T07:43:48.046Z,20.00
2022-08-07T07:46:55.244Z,20.00
2022-08-07T07:50:33.699Z,20.10
2022-08-07T07:52:23.477Z,20.20
2022-08-07T07:54:52.375Z,20.10
2022-08-07T07:57:43.622Z,20.20
2022-08-07T08:00:29.046Z,20.20
2022-08-07T08:03:09.237Z,20.20
2022-08-07T08:05:53.985Z,20.30
2022-08-07T08:08:35.238Z,20.30
2022-08-07T08:11:08.583Z,20.40
2022-08-07T08:13:54.052Z,20.40
2022-08-07T08:16:35.145Z,20.50
2022-08-07T08:19:17.271Z,20.60
2022-08-07T08:22:17.177Z,20.70
2022-08-07T08:25:24.674Z,20.80
2022-08-07T08:28:03.542Z,20.90
2022-08-07T08:30:37.492Z,21.00
2022-08-07T08:33:23.715Z,21.00
2022-08-07T08:35:56.164Z,21.10
2022-08-07T08:38:30.092Z,21.10
2022-08-07T08:41:15.774Z,21.10
2022-08-07T08:43:59.205Z,21.10
2022-08-07T08:46:44.829Z,21.10
2022-08-07T08:49:33.466Z,21.20
2022-08-07T08:52:30.291Z,21.30
2022-08-07T08:55:07.790Z,21.30
2022-08-07T08:57:43.787Z,21.50
2022-08-07T09:00:16.717Z,21.60
2022-08-07T09:02:58.132Z,21.70
2022-08-07T09:05:44.463Z,21.80
2022-08-07T09:08:39.417Z,21.90
2022-08-07T09:11:24.324Z,22.10
2022-08-07T09:14:14.240Z,22.20
2022-08-07T09:17:03.383Z,22.20
2022-08-07T09:19:55.150Z,22.30
2022-08-07T09:24:30.370Z,22.30
2022-08-07T09:25:54.315Z,22.60
2022-08-07T09:30:01.672Z,22.80
2022-08-07T09:31:38.441Z,22.90
2022-08-07T09:34:17.574Z,23.10
2022-08-07T09:37:03.027Z,23.10
2022-08-07T09:39:54.869Z,23.20
2022-08-07T09:42:47.701Z,23.10
2022-08-07T09:47:51.424Z,23.00
2022-08-07T09:48:55.993Z,23.00
2022-08-07T09:52:16.729Z,23.10
2022-08-07T09:54:45.084Z,23.20
2022-08-07T09:58:04.255Z,23.30
2022-08-07T10:00:59.202Z,23.30
2022-08-07T10:04:14.819Z,23.10
2022-08-07T10:07:25.545Z,23.00
2022-08-07T10:10:21.333Z,23.00
2022-08-07T10:13:55.305Z,23.00
2022-08-07T10:16:43.187Z,23.00
2022-08-07T10:19:40.793Z,23.00
2022-08-07T10:22:36.838Z,23.00
2022-08-07T10:25:22.817Z,22.90
2022-08-07T10:28:17.073Z,23.00
2022-08-07T10:31:05.889Z,22.80
2022-08-07T10:34:17.843Z,22.80
2022-08-07T10:37:10.246Z,22.70
2022-08-07T10:40:05.166Z,22.80
2022-08-07T10:42:41.635Z,22.70
2022-08-07T10:45:44.964Z,22.60
2022-08-07T10:48:44.256Z,22.70
2022-08-07T10:51:39.255Z,22.80
2022-08-07T10:54:22.434Z,23.00
2022-08-07T10:57:11.387Z,23.10
2022-08-07T11:00:06.154Z,23.30
2022-08-07T11:02:49.257Z,23.40
2022-08-07T11:05:50.562Z,23.60
2022-08-07T11:08:33.251Z,23.70
2022-08-07T11:11:09.878Z,23.50
2022-08-07T11:14:45.254Z,23.50
2022-08-07T11:16:47.995Z,23.50
2022-08-07T11:19:34.100Z,23.40
2022-08-07T11:22:26.379Z,23.40
2022-08-07T11:25:10.262Z,23.50
2022-08-07T11:28:03.124Z,23.50
2022-08-07T11:30:43.854Z,23.40
2022-08-07T11:33:53.710Z,23.30
2022-08-07T11:36:36.879Z,23.40
2022-08-07T11:39:23.398Z,23.40
2022-08-07T11:42:03.209Z,23.50
2022-08-07T11:44:57.945Z,23.50
2022-08-07T11:47:55.963Z,23.50
2022-08-07T11:50:57.448Z,23.60
2022-08-07T11:54:01.390Z,23.80
2022-08-07T11:56:56.290Z,23.90
2022-08-07T12:00:10.897Z,23.80
2022-08-07T12:03:46.363Z,23.90
2022-08-07T12:06:37.694Z,23.90
2022-08-07T12:09:23.273Z,23.90
2022-08-07T12:12:10.813Z,23.80
2022-08-07T12:15:01.165Z,23.70
2022-08-07T12:17:58.780Z,23.80
2022-08-07T12:20:38.919Z,23.80
2022-08-07T12:23:37.380Z,23.80
2022-08-07T12:26:40.741Z,23.70
2022-08-07T12:29:37.826Z,23.70
2022-08-07T12:32:17.028Z,23.80
2022-08-07T12:34:49.576Z,24.00
2022-08-07T12:37:28.366Z,24.00
2022-08-07T12:40:46.363Z,24.00
2022-08-07T12:44:04.136Z,24.00
2022-08-07T12:46:25.992Z,24.00
2022-08-07T12:49:25.575Z,24.00
2022-08-07T12:52:17.916Z,24.00
2022-08-07T12:55:09.431Z,24.10
2022-08-07T12:58:01.021Z,24.10
2022-08-07T13:00:50.088Z,24.10
2022-08-07T13:04:13.679Z,24.10
2022-08-07T13:08:14.055Z,24.10
2022-08-07T13:10:37.897Z,24.30
2022-08-07T13:13:47.038Z,24.30
2022-08-07T13:16:32.105Z,24.30
2022-08-07T13:19:21.772Z,24.30
2022-08-07T13:22:12.642Z,24.40
2022-08-07T13:25:00.041Z,24.50
2022-08-07T13:28:11.161Z,24.50
2022-08-07T13:30:41.335Z,24.50
2022-08-07T13:34:32.828Z,24.50
2022-08-07T13:36:29.548Z,24.60
2022-08-07T13:39:13.047Z,24.60
2022-08-07T13:41:58.657Z,24.50
2022-08-07T13:44:34.694Z,24.60
2022-08-07T13:47:10.428Z,24.60
2022-08-07T13:50:34.065Z,24.60
2022-08-07T13:52:47.059Z,24.50
2022-08-07T13:55:26.239Z,24.60
2022-08-07T13:58:27.946Z,24.50
2022-08-07T14:01:09.102Z,24.50
2022-08-07T14:04:08.103Z,24.40
2022-08-07T14:06:38.726Z,24.40
2022-08-07T14:09:17.122Z,24.40
2022-08-07T14:12:10.475Z,24.40
2022-08-07T14:14:48.036Z,24.50
2022-08-07T14:18:12.311Z,24.40
2022-08-07T14:20:39.876Z,24.50
2022-08-07T14:23:31.396Z,24.50
2022-08-07T14:26:29.788Z,24.30
2022-08-07T14:29:08.859Z,24.30
2022-08-07T14:31:56.548Z,24.20
2022-08-07T14:34:30.265Z,24.10
2022-08-07T14:37:03.393Z,24.10
2022-08-07T14:40:17.707Z,24.00
2022-08-07T14:42:35.484Z,24.00
2022-08-07T14:45:26.352Z,24.00
2022-08-07T14:48:19.932Z,24.10
2022-08-07T14:50:52.295Z,24.30
2022-08-07T14:54:05.781Z,24.40
2022-08-07T14:59:13.727Z,24.30
2022-08-07T15:05:02.336Z,24.10
2022-08-07T15:07:47.166Z,24.20
2022-08-07T15:10:25.957Z,24.20
2022-08-07T15:13:05.580Z,24.20
2022-08-07T15:15:42.071Z,24.10
2022-08-07T15:18:28.681Z,24.10
2022-08-07T15:21:44.116Z,24.20
2022-08-07T15:25:14.125Z,24.00
2022-08-07T15:27:01.223Z,24.00
2022-08-07T15:30:09.797Z,23.90
2022-08-07T15:32:39.622Z,23.80
2022-08-07T15:36:00.301Z,23.90
2022-08-07T15:38:29.919Z,24.10
2022-08-07T15:41:23.865Z,24.10
2022-08-07T15:44:04.374Z,24.20
2022-08-07T15:46:51.790Z,24.20
2022-08-07T15:50:05.348Z,24.10
2022-08-07T15:52:30.830Z,24.00
2022-08-07T15:55:03.531Z,24.00
2022-08-07T15:57:39.994Z,24.00
2022-08-07T16:00:31.881Z,23.90
2022-08-07T16:03:22.132Z,23.90
2022-08-07T16:06:03.465Z,23.90
2022-08-07T16:08:38.505Z,23.90
2022-08-07T16:11:28.725Z,23.80
2022-08-07T16:14:17.225Z,23.80
2022-08-07T16:18:01.296Z,23.70
2022-08-07T16:21:43.726Z,23.60
2022-08-07T16:24:00.314Z,23.60
2022-08-07T16:26:59.279Z,23.40
2022-08-07T16:30:11.085Z,23.40
2022-08-07T16:32:53.909Z,23.40
2022-08-07T16:35:58.600Z,23.40
2022-08-07T16:39:00.719Z,23.40
2022-08-07T16:41:56.383Z,23.30
2022-08-07T16:45:14.814Z,23.50
2022-08-07T16:48:37.676Z,23.40
2022-08-07T16:52:01.681Z,23.30
2022-08-07T16:54:55.253Z,23.30
2022-08-07T16:58:01.788Z,23.30
2022-08-07T17:00:29.901Z,23.40
2022-08-07T17:03:19.624Z,23.30
2022-08-07T17:06:31.499Z,23.20
2022-08-07T17:10:05.193Z,23.20
2022-08-07T17:12:33.566Z,23.20
2022-08-07T17:15:17.466Z,23.10
2022-08-07T17:18:04.025Z,23.00
2022-08-07T17:20:37.732Z,22.90
2022-08-07T17:23:35.745Z,22.90
2022-08-07T17:26:22.600Z,22.90
2022-08-07T17:29:09.614Z,22.90
2022-08-07T17:32:09.492Z,22.70
2022-08-07T17:35:50.302Z,22.70
2022-08-07T17:38:06.896Z,22.70
2022-08-07T17:41:12.455Z,22.60
2022-08-07T17:44:08.368Z,22.70
2022-08-07T17:46:52.631Z,22.80
2022-08-07T17:49:26.132Z,22.80
2022-08-07T17:52:06.464Z,22.70
2022-08-07T17:54:54.588Z,22.80
2022-08-07T17:57:59.262Z,22.70
2022-08-07T18:00:34.280Z,22.70
2022-08-07T18:03:21.605Z,22.50
2022-08-07T18:06:06.698Z,22.50
2022-08-07T18:09:02.030Z,22.40
2022-08-07T18:12:07.997Z,22.30
2022-08-07T18:14:46.249Z,22.10
2022-08-07T18:18:47.317Z,22.00
2022-08-07T18:21:06.657Z,22.00
2022-08-07T18:23:42.958Z,21.90
2022-08-07T18:26:22.819Z,21.90
2022-08-07T18:30:04.533Z,21.80
2022-08-07T18:32:17.463Z,21.90
2022-08-07T18:35:10.589Z,21.80
2022-08-07T18:38:57.071Z,21.90
2022-08-07T18:41:16.741Z,21.70
2022-08-07T18:44:01.107Z,21.60
2022-08-07T18:46:42.874Z,21.50
2022-08-07T18:50:30.241Z,21.40
2022-08-07T18:53:01.411Z,21.40
2022-08-07T18:55:57.393Z,21.30
2022-08-07T18:58:52.002Z,21.20
2022-08-07T19:02:18.162Z,21.00
2022-08-07T19:04:55.871Z,20.90
2022-08-07T19:07:51.508Z,20.80
2022-08-07T19:10:32.674Z,20.80
2022-08-07T19:13:27.560Z,20.70
2022-08-07T19:17:00.667Z,20.60
2022-08-07T19:19:04.718Z,20.50
2022-08-07T19:21:56.850Z,20.40
2022-08-07T19:24:44.605Z,20.30
2022-08-07T19:28:30.306Z,20.30
2022-08-07T19:31:06.292Z,20.30
2022-08-07T19:33:10.088Z,20.20
2022-08-07T19:35:44.577Z,20.20
2022-08-07T19:38:17.936Z,20.00
2022-08-07T19:40:53.646Z,19.90
2022-08-07T19:43:45.192Z,19.80
2022-08-07T19:46:19.309Z,19.90
2022-08-07T19:48:54.753Z,19.70
2022-08-07T19:51:52.230Z,19.80
2022-08-07T19:54:32.313Z,19.80
2022-08-07T19:58:03.554Z,19.70
2022-08-07T20:00:08.882Z,19.60
2022-08-07T20:02:51.934Z,19.60
2022-08-07T20:05:28.088Z,19.50
2022-08-07T20:08:01.922Z,19.50
2022-08-07T20:10:54.498Z,19.40
2022-08-07T20:13:37.985Z,19.40
2022-08-07T20:16:15.821Z,19.40
2022-08-07T20:19:10.601Z,19.30
2022-08-07T20:21:42.186Z,19.30
2022-08-07T20:24:20.625Z,19.20
2022-08-07T20:26:54.745Z,19.20
2022-08-07T20:29:49.521Z,19.20
2022-08-07T20:32:25.632Z,19.20
2022-08-07T20:34:59.606Z,19.10
2022-08-07T20:37:33.715Z,19.20
2022-08-07T20:40:31.183Z,19.20
2022-08-07T20:42:57.753Z,19.30
2022-08-07T20:45:32.934Z,19.10
2022-08-07T20:48:30.087Z,19.00
2022-08-07T20:51:03.198Z,18.90
2022-08-07T20:54:04.544Z,18.80
2022-08-07T20:56:28.743Z,18.70
2022-08-07T20:59:01.932Z,18.60
2022-08-07T21:01:45.351Z,18.60
2022-08-07T21:04:22.415Z,18.60
2022-08-07T21:06:56.699Z,18.50
2022-08-07T21:09:53.174Z,18.50
2022-08-07T21:12:29.148Z,18.50
2022-08-07T21:15:06.459Z,18.40
2022-08-07T21:18:03.075Z,18.50
2022-08-07T21:20:33.489Z,18.40
2022-08-07T21:23:09.331Z,18.40
2022-08-07T21:26:04.561Z,18.40
2022-08-07T21:28:48.910Z,18.40
2022-08-07T21:31:49.699Z,18.50
2022-08-07T21:34:33.722Z,18.40
2022-08-07T21:37:09.936Z,18.40
2022-08-07T21:39:55.212Z,18.30
2022-08-07T21:42:48.022Z,18.40
2022-08-07T21:46:07.868Z,18.40
2022-08-07T21:48:29.225Z,18.40
2022-08-07T21:51:19.938Z,18.30
2022-08-07T21:53:59.619Z,18.30
2022-08-07T21:56:49.305Z,18.20
2022-08-07T22:00:04.520Z,18.20
2022-08-07T22:02:41.388Z,18.10
2022-08-07T22:05:21.778Z,18.10
2022-08-07T22:08:10.399Z,18.20
2022-08-07T22:10:42.359Z,18.20
2022-08-07T22:13:15.942Z,18.20
2022-08-07T22:16:40.197Z,18.10
2022-08-07T22:18:52.750Z,18.10
2022-08-07T22:22:04.834Z,18.10
2022-08-07T22:24:23.769Z,18.10
2022-08-07T22:27:10.325Z,18.00
2022-08-07T22:29:53.159Z,18.00
2022-08-07T22:32:35.039Z,17.90
2022-08-07T22:35:07.833Z,17.90
2022-08-07T22:38:03.211Z,17.90
2022-08-07T22:40:57.882Z,17.80
2022-08-07T22:43:37.256Z,17.90
2022-08-07T22:47:01.972Z,17.80
2022-08-07T22:50:28.798Z,17.80
2022-08-07T22:54:06.563Z,17.80
2022-08-07T22:56:31.005Z,17.70
2022-08-07T22:59:49.819Z,17.70
2022-08-07T23:02:48.040Z,17.70
2022-08-07T23:06:10.292Z,17.70
2022-08-07T23:10:05.864Z,17.70
2022-08-07T23:12:10.269Z,17.60
2022-08-07T23:15:11.998Z,17.50
2022-08-07T23:18:27.142Z,17.50
2022-08-07T23:21:30.398Z,17.40
2022-08-07T23:24:34.371Z,17.40
2022-08-07T23:27:35.824Z,17.50
2022-08-07T23:30:42.594Z,17.50
2022-08-07T23:34:33.888Z,17.50
2022-08-07T23:37:17.832Z,17.50
2022-08-07T23:40:01.539Z,17.50
2022-08-07T23:43:01.739Z,17.40
2022-08-07T23:46:03.072Z,17.40
2022-08-07T23:49:15.351Z,17.40
2022-08-07T23:52:59.825Z,17.40
2022-08-07T23:54:52.779Z,17.30
2022-08-07T23:57:37.126Z,17.30
